sensor_id;sensor_type;location;lat;lon;timestamp;P1;durP1;ratioP1;P2;durP2;ratioP2
9968;SDS011;5025;48.890;9.278;2022-11-21T00:02:21;0.80;;;0.80;;
9968;SDS011;5025;48.890;9.278;2022-11-21T00:04:46;0.80;;;0.60;;
9968;SDS011;5025;48.890;9.278;2022-11-21T00:07:12;0.87;;;0.87;;
9968;SDS011;5025;48.890;9.278;2022-11-21T00:09:37;0.77;;;0.70;;
9968;SDS011;5025;48.890;9.278;2022-11-21T00:12:02;0.73;;;0.73;;
9968;SDS011;5025;48.890;9.278;2022-11-21T00:14:27;0.77;;;0.57;;
9968;SDS011;5025;48.890;9.278;2022-11-21T00:16:53;0.70;;;0.70;;
9968;SDS011;5025;48.890;9.278;2022-11-21T00:19:18;1.00;;;0.70;;
9968;SDS011;5025;48.890;9.278;2022-11-21T00:21:43;0.60;;;0.60;;
9968;SDS011;5025;48.890;9.278;2022-11-21T00:24:09;0.53;;;0.53;;
9968;SDS011;5025;48.890;9.278;2022-11-21T00:26:35;0.70;;;0.67;;
9968;SDS011;5025;48.890;9.278;2022-11-21T00:29:01;0.50;;;0.50;;
9968;SDS011;5025;48.890;9.278;2022-11-21T00:31:26;0.70;;;0.70;;
9968;SDS011;5025;48.890;9.278;2022-11-21T00:33:51;1.07;;;0.50;;
9968;SDS011;5025;48.890;9.278;2022-11-21T00:36:17;0.53;;;0.53;;
9968;SDS011;5025;48.890;9.278;2022-11-21T00:38:42;0.67;;;0.53;;
9968;SDS011;5025;48.890;9.278;2022-11-21T00:41:07;0.83;;;0.63;;
9968;SDS011;5025;48.890;9.278;2022-11-21T00:43:33;0.60;;;0.60;;
9968;SDS011;5025;48.890;9.278;2022-11-21T00:45:58;1.77;;;0.70;;
9968;SDS011;5025;48.890;9.278;2022-11-21T00:48:26;0.80;;;0.50;;
9968;SDS011;5025;48.890;9.278;2022-11-21T00:50:51;0.67;;;0.67;;
9968;SDS011;5025;48.890;9.278;2022-11-21T00:53:17;0.43;;;0.43;;
9968;SDS011;5025;48.890;9.278;2022-11-21T00:55:42;0.57;;;0.47;;
9968;SDS011;5025;48.890;9.278;2022-11-21T00:58:07;1.10;;;0.77;;
9968;SDS011;5025;48.890;9.278;2022-11-21T01:00:33;1.13;;;0.60;;
9968;SDS011;5025;48.890;9.278;2022-11-21T01:02:58;0.60;;;0.57;;
9968;SDS011;5025;48.890;9.278;2022-11-21T01:05:23;0.53;;;0.30;;
9968;SDS011;5025;48.890;9.278;2022-11-21T01:07:48;0.43;;;0.40;;
9968;SDS011;5025;48.890;9.278;2022-11-21T01:10:14;0.73;;;0.50;;
9968;SDS011;5025;48.890;9.278;2022-11-21T01:12:39;0.80;;;0.40;;
9968;SDS011;5025;48.890;9.278;2022-11-21T01:15:05;0.47;;;0.47;;
9968;SDS011;5025;48.890;9.278;2022-11-21T01:17:31;0.50;;;0.50;;
9968;SDS011;5025;48.890;9.278;2022-11-21T01:19:57;0.30;;;0.30;;
9968;SDS011;5025;48.890;9.278;2022-11-21T01:22:22;0.30;;;0.30;;
9968;SDS011;5025;48.890;9.278;2022-11-21T01:24:48;1.07;;;0.50;;
9968;SDS011;5025;48.890;9.278;2022-11-21T01:27:13;0.47;;;0.37;;
9968;SDS011;5025;48.890;9.278;2022-11-21T01:29:38;0.83;;;0.50;;
9968;SDS011;5025;48.890;9.278;2022-11-21T01:32:03;0.83;;;0.47;;
9968;SDS011;5025;48.890;9.278;2022-11-21T01:34:29;0.70;;;0.37;;
9968;SDS011;5025;48.890;9.278;2022-11-21T01:36:54;0.50;;;0.50;;
9968;SDS011;5025;48.890;9.278;2022-11-21T01:39:19;0.77;;;0.30;;
9968;SDS011;5025;48.890;9.278;2022-11-21T01:41:45;1.33;;;0.60;;
9968;SDS011;5025;48.890;9.278;2022-11-21T01:46:47;0.50;;;0.50;;
9968;SDS011;5025;48.890;9.278;2022-11-21T01:49:18;0.93;;;0.60;;
9968;SDS011;5025;48.890;9.278;2022-11-21T01:51:48;0.53;;;0.53;;
9968;SDS011;5025;48.890;9.278;2022-11-21T01:54:24;0.40;;;0.40;;
9968;SDS011;5025;48.890;9.278;2022-11-21T02:02:03;0.67;;;0.67;;
9968;SDS011;5025;48.890;9.278;2022-11-21T02:04:31;0.87;;;0.80;;
9968;SDS011;5025;48.890;9.278;2022-11-21T02:06:58;0.53;;;0.50;;
9968;SDS011;5025;48.890;9.278;2022-11-21T02:09:26;1.20;;;0.70;;
9968;SDS011;5025;48.890;9.278;2022-11-21T02:11:54;0.73;;;0.60;;
9968;SDS011;5025;48.890;9.278;2022-11-21T02:14:22;0.60;;;0.60;;
9968;SDS011;5025;48.890;9.278;2022-11-21T02:16:48;1.60;;;0.80;;
9968;SDS011;5025;48.890;9.278;2022-11-21T02:19:17;2.87;;;0.80;;
9968;SDS011;5025;48.890;9.278;2022-11-21T02:21:54;0.63;;;0.63;;
9968;SDS011;5025;48.890;9.278;2022-11-21T02:27:08;0.93;;;0.43;;
9968;SDS011;5025;48.890;9.278;2022-11-21T02:29:34;0.80;;;0.73;;
9968;SDS011;5025;48.890;9.278;2022-11-21T02:32:01;0.67;;;0.67;;
9968;SDS011;5025;48.890;9.278;2022-11-21T02:34:29;0.70;;;0.70;;
9968;SDS011;5025;48.890;9.278;2022-11-21T02:36:54;0.83;;;0.60;;
9968;SDS011;5025;48.890;9.278;2022-11-21T02:39:34;0.93;;;0.80;;
9968;SDS011;5025;48.890;9.278;2022-11-21T02:42:08;0.70;;;0.50;;
9968;SDS011;5025;48.890;9.278;2022-11-21T02:44:42;0.50;;;0.50;;
9968;SDS011;5025;48.890;9.278;2022-11-21T02:47:09;0.90;;;0.50;;
9968;SDS011;5025;48.890;9.278;2022-11-21T02:49:44;0.83;;;0.57;;
9968;SDS011;5025;48.890;9.278;2022-11-21T02:52:17;1.17;;;0.83;;
9968;SDS011;5025;48.890;9.278;2022-11-21T02:54:43;1.27;;;0.70;;
9968;SDS011;5025;48.890;9.278;2022-11-21T02:57:08;1.07;;;0.70;;
9968;SDS011;5025;48.890;9.278;2022-11-21T02:59:33;0.93;;;0.73;;
9968;SDS011;5025;48.890;9.278;2022-11-21T03:01:59;0.80;;;0.67;;
9968;SDS011;5025;48.890;9.278;2022-11-21T03:04:25;1.53;;;0.80;;
9968;SDS011;5025;48.890;9.278;2022-11-21T03:06:51;0.90;;;0.50;;
9968;SDS011;5025;48.890;9.278;2022-11-21T03:09:16;1.43;;;0.70;;
9968;SDS011;5025;48.890;9.278;2022-11-21T03:11:41;0.67;;;0.43;;
9968;SDS011;5025;48.890;9.278;2022-11-21T03:14:07;0.93;;;0.60;;
9968;SDS011;5025;48.890;9.278;2022-11-21T03:16:32;0.77;;;0.60;;
9968;SDS011;5025;48.890;9.278;2022-11-21T03:18:57;1.20;;;1.10;;
9968;SDS011;5025;48.890;9.278;2022-11-21T03:21:23;0.80;;;0.80;;
9968;SDS011;5025;48.890;9.278;2022-11-21T03:23:48;0.60;;;0.60;;
9968;SDS011;5025;48.890;9.278;2022-11-21T03:26:14;0.47;;;0.47;;
9968;SDS011;5025;48.890;9.278;2022-11-21T03:28:40;0.50;;;0.50;;
9968;SDS011;5025;48.890;9.278;2022-11-21T03:31:06;0.50;;;0.50;;
9968;SDS011;5025;48.890;9.278;2022-11-21T03:33:32;0.30;;;0.30;;
9968;SDS011;5025;48.890;9.278;2022-11-21T03:35:57;0.60;;;0.40;;
9968;SDS011;5025;48.890;9.278;2022-11-21T03:38:22;0.50;;;0.50;;
9968;SDS011;5025;48.890;9.278;2022-11-21T03:40:47;0.47;;;0.47;;
9968;SDS011;5025;48.890;9.278;2022-11-21T03:43:13;0.50;;;0.50;;
9968;SDS011;5025;48.890;9.278;2022-11-21T03:45:38;0.30;;;0.30;;
9968;SDS011;5025;48.890;9.278;2022-11-21T03:48:03;1.03;;;1.03;;
9968;SDS011;5025;48.890;9.278;2022-11-21T03:50:29;0.73;;;0.73;;
9968;SDS011;5025;48.890;9.278;2022-11-21T03:52:54;0.50;;;0.50;;
9968;SDS011;5025;48.890;9.278;2022-11-21T03:55:19;0.53;;;0.53;;
9968;SDS011;5025;48.890;9.278;2022-11-21T03:57:45;0.67;;;0.50;;
9968;SDS011;5025;48.890;9.278;2022-11-21T04:00:11;1.10;;;0.63;;
9968;SDS011;5025;48.890;9.278;2022-11-21T04:02:37;0.50;;;0.50;;
9968;SDS011;5025;48.890;9.278;2022-11-21T04:05:02;0.47;;;0.47;;
9968;SDS011;5025;48.890;9.278;2022-11-21T04:07:28;0.50;;;0.50;;
9968;SDS011;5025;48.890;9.278;2022-11-21T04:09:54;0.40;;;0.40;;
9968;SDS011;5025;48.890;9.278;2022-11-21T04:12:19;0.50;;;0.40;;
9968;SDS011;5025;48.890;9.278;2022-11-21T04:14:44;0.30;;;0.30;;
9968;SDS011;5025;48.890;9.278;2022-11-21T04:17:10;0.50;;;0.50;;
9968;SDS011;5025;48.890;9.278;2022-11-21T04:19:35;0.50;;;0.50;;
9968;SDS011;5025;48.890;9.278;2022-11-21T04:22:00;0.50;;;0.50;;
9968;SDS011;5025;48.890;9.278;2022-11-21T04:24:25;0.30;;;0.30;;
9968;SDS011;5025;48.890;9.278;2022-11-21T04:26:52;0.77;;;0.43;;
9968;SDS011;5025;48.890;9.278;2022-11-21T04:29:18;0.30;;;0.30;;
9968;SDS011;5025;48.890;9.278;2022-11-21T04:31:43;0.80;;;0.50;;
9968;SDS011;5025;48.890;9.278;2022-11-21T04:34:09;0.43;;;0.27;;
9968;SDS011;5025;48.890;9.278;2022-11-21T04:36:34;1.27;;;0.40;;
9968;SDS011;5025;48.890;9.278;2022-11-21T04:38:59;0.30;;;0.30;;
9968;SDS011;5025;48.890;9.278;2022-11-21T04:41:25;0.70;;;0.57;;
9968;SDS011;5025;48.890;9.278;2022-11-21T04:43:50;0.30;;;0.30;;
9968;SDS011;5025;48.890;9.278;2022-11-21T04:46:16;1.60;;;0.87;;
9968;SDS011;5025;48.890;9.278;2022-11-21T04:48:41;0.63;;;0.30;;
9968;SDS011;5025;48.890;9.278;2022-11-21T04:51:06;0.47;;;0.40;;
9968;SDS011;5025;48.890;9.278;2022-11-21T04:53:32;1.20;;;0.70;;
9968;SDS011;5025;48.890;9.278;2022-11-21T04:55:57;1.20;;;0.40;;
9968;SDS011;5025;48.890;9.278;2022-11-21T04:58:24;0.73;;;0.63;;
9968;SDS011;5025;48.890;9.278;2022-11-21T05:00:49;0.60;;;0.60;;
9968;SDS011;5025;48.890;9.278;2022-11-21T05:03:14;0.70;;;0.70;;
9968;SDS011;5025;48.890;9.278;2022-11-21T05:05:40;0.83;;;0.83;;
9968;SDS011;5025;48.890;9.278;2022-11-21T05:08:05;0.70;;;0.70;;
9968;SDS011;5025;48.890;9.278;2022-11-21T05:10:30;0.70;;;0.70;;
9968;SDS011;5025;48.890;9.278;2022-11-21T05:13:16;0.43;;;0.43;;
9968;SDS011;5025;48.890;9.278;2022-11-21T05:15:47;1.43;;;0.70;;
9968;SDS011;5025;48.890;9.278;2022-11-21T05:18:16;0.70;;;0.70;;
9968;SDS011;5025;48.890;9.278;2022-11-21T05:20:43;0.80;;;0.80;;
9968;SDS011;5025;48.890;9.278;2022-11-21T05:23:08;0.77;;;0.77;;
9968;SDS011;5025;48.890;9.278;2022-11-21T05:25:33;0.87;;;0.80;;
9968;SDS011;5025;48.890;9.278;2022-11-21T05:27:58;1.60;;;0.90;;
9968;SDS011;5025;48.890;9.278;2022-11-21T05:30:24;1.10;;;0.97;;
9968;SDS011;5025;48.890;9.278;2022-11-21T05:32:49;1.10;;;1.00;;
9968;SDS011;5025;48.890;9.278;2022-11-21T05:35:14;1.10;;;1.00;;
9968;SDS011;5025;48.890;9.278;2022-11-21T05:37:40;1.03;;;1.00;;
9968;SDS011;5025;48.890;9.278;2022-11-21T05:40:05;1.43;;;1.10;;
9968;SDS011;5025;48.890;9.278;2022-11-21T05:42:31;1.07;;;1.07;;
9968;SDS011;5025;48.890;9.278;2022-11-21T05:45:15;0.93;;;0.80;;
9968;SDS011;5025;48.890;9.278;2022-11-21T05:47:40;0.90;;;0.90;;
9968;SDS011;5025;48.890;9.278;2022-11-21T05:50:06;0.93;;;0.87;;
9968;SDS011;5025;48.890;9.278;2022-11-21T05:52:31;0.73;;;0.73;;
9968;SDS011;5025;48.890;9.278;2022-11-21T05:54:57;0.80;;;0.70;;
9968;SDS011;5025;48.890;9.278;2022-11-21T05:57:22;0.70;;;0.70;;
9968;SDS011;5025;48.890;9.278;2022-11-21T05:59:47;1.27;;;0.73;;
9968;SDS011;5025;48.890;9.278;2022-11-21T06:02:13;0.67;;;0.67;;
9968;SDS011;5025;48.890;9.278;2022-11-21T06:04:56;1.27;;;1.10;;
9968;SDS011;5025;48.890;9.278;2022-11-21T06:07:22;1.63;;;1.30;;
9968;SDS011;5025;48.890;9.278;2022-11-21T06:09:47;1.47;;;1.37;;
9968;SDS011;5025;48.890;9.278;2022-11-21T06:12:12;1.53;;;1.30;;
9968;SDS011;5025;48.890;9.278;2022-11-21T06:14:37;1.97;;;1.30;;
9968;SDS011;5025;48.890;9.278;2022-11-21T06:17:03;1.63;;;1.53;;
9968;SDS011;5025;48.890;9.278;2022-11-21T06:19:28;1.53;;;1.43;;
9968;SDS011;5025;48.890;9.278;2022-11-21T06:21:53;2.77;;;1.77;;
9968;SDS011;5025;48.890;9.278;2022-11-21T06:24:18;1.50;;;1.40;;
9968;SDS011;5025;48.890;9.278;2022-11-21T06:26:44;2.17;;;1.20;;
9968;SDS011;5025;48.890;9.278;2022-11-21T06:29:10;1.03;;;1.00;;
9968;SDS011;5025;48.890;9.278;2022-11-21T06:31:35;1.30;;;1.20;;
9968;SDS011;5025;48.890;9.278;2022-11-21T06:34:00;1.37;;;1.27;;
9968;SDS011;5025;48.890;9.278;2022-11-21T06:36:26;1.00;;;1.00;;
9968;SDS011;5025;48.890;9.278;2022-11-21T06:38:52;1.20;;;1.10;;
9968;SDS011;5025;48.890;9.278;2022-11-21T06:41:20;1.53;;;1.43;;
9968;SDS011;5025;48.890;9.278;2022-11-21T06:43:47;1.77;;;1.30;;
9968;SDS011;5025;48.890;9.278;2022-11-21T06:46:12;3.07;;;2.10;;
9968;SDS011;5025;48.890;9.278;2022-11-21T06:48:38;1.80;;;1.70;;
9968;SDS011;5025;48.890;9.278;2022-11-21T06:53:52;4.27;;;2.40;;
9968;SDS011;5025;48.890;9.278;2022-11-21T06:56:23;1.60;;;1.50;;
9968;SDS011;5025;48.890;9.278;2022-11-21T06:58:53;2.93;;;1.50;;
9968;SDS011;5025;48.890;9.278;2022-11-21T07:01:18;5.23;;;1.73;;
9968;SDS011;5025;48.890;9.278;2022-11-21T07:03:44;4.93;;;1.80;;
9968;SDS011;5025;48.890;9.278;2022-11-21T07:06:09;3.60;;;2.30;;
9968;SDS011;5025;48.890;9.278;2022-11-21T07:08:34;3.73;;;2.10;;
9968;SDS011;5025;48.890;9.278;2022-11-21T07:11:05;1.83;;;1.70;;
9968;SDS011;5025;48.890;9.278;2022-11-21T07:13:32;2.50;;;2.07;;
9968;SDS011;5025;48.890;9.278;2022-11-21T07:16:01;2.97;;;1.90;;
9968;SDS011;5025;48.890;9.278;2022-11-21T07:18:34;2.57;;;2.00;;
9968;SDS011;5025;48.890;9.278;2022-11-21T07:21:01;2.93;;;1.90;;
9968;SDS011;5025;48.890;9.278;2022-11-21T07:23:28;2.90;;;2.23;;
9968;SDS011;5025;48.890;9.278;2022-11-21T07:25:58;2.40;;;2.20;;
9968;SDS011;5025;48.890;9.278;2022-11-21T07:28:28;3.50;;;2.53;;
9968;SDS011;5025;48.890;9.278;2022-11-21T07:30:58;2.70;;;2.50;;
9968;SDS011;5025;48.890;9.278;2022-11-21T07:33:25;2.43;;;2.23;;
9968;SDS011;5025;48.890;9.278;2022-11-21T07:35:50;2.03;;;1.93;;
9968;SDS011;5025;48.890;9.278;2022-11-21T07:38:16;2.47;;;1.60;;
9968;SDS011;5025;48.890;9.278;2022-11-21T07:40:42;1.73;;;1.50;;
9968;SDS011;5025;48.890;9.278;2022-11-21T07:43:08;1.70;;;1.60;;
9968;SDS011;5025;48.890;9.278;2022-11-21T07:45:34;2.33;;;1.77;;
9968;SDS011;5025;48.890;9.278;2022-11-21T07:48:00;2.13;;;2.00;;
9968;SDS011;5025;48.890;9.278;2022-11-21T07:50:27;4.13;;;2.50;;
9968;SDS011;5025;48.890;9.278;2022-11-21T07:53:00;2.47;;;2.27;;
9968;SDS011;5025;48.890;9.278;2022-11-21T07:55:27;2.10;;;2.00;;
9968;SDS011;5025;48.890;9.278;2022-11-21T07:57:56;2.10;;;1.90;;
9968;SDS011;5025;48.890;9.278;2022-11-21T08:00:26;4.77;;;2.50;;
9968;SDS011;5025;48.890;9.278;2022-11-21T08:02:53;2.17;;;2.00;;
9968;SDS011;5025;48.890;9.278;2022-11-21T08:05:18;2.00;;;1.90;;
9968;SDS011;5025;48.890;9.278;2022-11-21T08:07:43;5.43;;;4.90;;
9968;SDS011;5025;48.890;9.278;2022-11-21T08:10:09;3.50;;;3.20;;
9968;SDS011;5025;48.890;9.278;2022-11-21T08:12:34;3.03;;;2.83;;
9968;SDS011;5025;48.890;9.278;2022-11-21T08:14:59;3.53;;;2.60;;
9968;SDS011;5025;48.890;9.278;2022-11-21T08:17:25;3.13;;;2.60;;
9968;SDS011;5025;48.890;9.278;2022-11-21T08:19:50;2.40;;;2.20;;
9968;SDS011;5025;48.890;9.278;2022-11-21T08:22:16;2.50;;;2.10;;
9968;SDS011;5025;48.890;9.278;2022-11-21T08:24:41;1.93;;;1.80;;
9968;SDS011;5025;48.890;9.278;2022-11-21T08:27:06;2.00;;;1.90;;
9968;SDS011;5025;48.890;9.278;2022-11-21T08:29:32;2.03;;;1.60;;
9968;SDS011;5025;48.890;9.278;2022-11-21T08:31:57;1.80;;;1.70;;
9968;SDS011;5025;48.890;9.278;2022-11-21T08:34:22;1.70;;;1.60;;
9968;SDS011;5025;48.890;9.278;2022-11-21T08:36:47;1.90;;;1.80;;
9968;SDS011;5025;48.890;9.278;2022-11-21T08:39:13;2.33;;;1.70;;
9968;SDS011;5025;48.890;9.278;2022-11-21T08:41:38;2.33;;;2.13;;
9968;SDS011;5025;48.890;9.278;2022-11-21T08:44:22;1.63;;;1.50;;
9968;SDS011;5025;48.890;9.278;2022-11-21T08:46:47;1.83;;;1.60;;
9968;SDS011;5025;48.890;9.278;2022-11-21T08:49:13;1.70;;;1.50;;
9968;SDS011;5025;48.890;9.278;2022-11-21T08:51:38;2.20;;;1.40;;
9968;SDS011;5025;48.890;9.278;2022-11-21T08:54:04;2.53;;;1.87;;
9968;SDS011;5025;48.890;9.278;2022-11-21T08:56:29;3.00;;;1.90;;
9968;SDS011;5025;48.890;9.278;2022-11-21T08:58:54;2.23;;;1.50;;
9968;SDS011;5025;48.890;9.278;2022-11-21T09:01:20;2.93;;;1.47;;
9968;SDS011;5025;48.890;9.278;2022-11-21T09:03:46;1.57;;;1.47;;
9968;SDS011;5025;48.890;9.278;2022-11-21T09:06:11;2.80;;;1.60;;
9968;SDS011;5025;48.890;9.278;2022-11-21T09:08:37;1.70;;;1.50;;
9968;SDS011;5025;48.890;9.278;2022-11-21T09:11:06;2.17;;;1.40;;
9968;SDS011;5025;48.890;9.278;2022-11-21T09:13:33;2.60;;;1.80;;
9968;SDS011;5025;48.890;9.278;2022-11-21T09:15:59;4.63;;;1.70;;
9968;SDS011;5025;48.890;9.278;2022-11-21T09:18:43;3.40;;;1.57;;
9968;SDS011;5025;48.890;9.278;2022-11-21T09:21:08;2.97;;;1.47;;
9968;SDS011;5025;48.890;9.278;2022-11-21T09:23:38;3.97;;;1.60;;
9968;SDS011;5025;48.890;9.278;2022-11-21T09:26:04;4.93;;;1.70;;
9968;SDS011;5025;48.890;9.278;2022-11-21T09:28:29;3.37;;;1.40;;
9968;SDS011;5025;48.890;9.278;2022-11-21T09:30:54;3.83;;;1.43;;
9968;SDS011;5025;48.890;9.278;2022-11-21T09:33:19;6.90;;;2.93;;
9968;SDS011;5025;48.890;9.278;2022-11-21T09:35:45;4.90;;;2.00;;
9968;SDS011;5025;48.890;9.278;2022-11-21T09:38:10;3.77;;;1.83;;
9968;SDS011;5025;48.890;9.278;2022-11-21T09:40:35;4.77;;;2.83;;
9968;SDS011;5025;48.890;9.278;2022-11-21T09:45:49;6.10;;;1.90;;
9968;SDS011;5025;48.890;9.278;2022-11-21T09:48:21;3.77;;;1.97;;
9968;SDS011;5025;48.890;9.278;2022-11-21T09:50:56;3.67;;;2.00;;
9968;SDS011;5025;48.890;9.278;2022-11-21T09:56:03;5.60;;;1.87;;
9968;SDS011;5025;48.890;9.278;2022-11-21T10:01:24;2.27;;;1.50;;
9968;SDS011;5025;48.890;9.278;2022-11-21T10:03:50;2.87;;;1.60;;
9968;SDS011;5025;48.890;9.278;2022-11-21T10:06:18;4.37;;;2.00;;
9968;SDS011;5025;48.890;9.278;2022-11-21T10:09:02;3.50;;;1.50;;
9968;SDS011;5025;48.890;9.278;2022-11-21T10:17:23;3.83;;;1.77;;
9968;SDS011;5025;48.890;9.278;2022-11-21T10:20:07;3.33;;;1.43;;
9968;SDS011;5025;48.890;9.278;2022-11-21T10:23:08;2.93;;;1.33;;
9968;SDS011;5025;48.890;9.278;2022-11-21T10:25:42;2.47;;;1.57;;
9968;SDS011;5025;48.890;9.278;2022-11-21T10:28:19;3.33;;;1.40;;
9968;SDS011;5025;48.890;9.278;2022-11-21T10:30:52;2.77;;;1.60;;
9968;SDS011;5025;48.890;9.278;2022-11-21T10:33:32;2.47;;;1.37;;
9968;SDS011;5025;48.890;9.278;2022-11-21T10:36:08;3.20;;;1.30;;
9968;SDS011;5025;48.890;9.278;2022-11-21T10:38:40;2.40;;;1.40;;
9968;SDS011;5025;48.890;9.278;2022-11-21T10:43:55;3.20;;;1.30;;
9968;SDS011;5025;48.890;9.278;2022-11-21T10:46:52;1.90;;;1.40;;
9968;SDS011;5025;48.890;9.278;2022-11-21T10:49:22;2.45;;;1.40;;
9968;SDS011;5025;48.890;9.278;2022-11-21T10:51:50;2.27;;;1.30;;
9968;SDS011;5025;48.890;9.278;2022-11-21T10:54:24;2.40;;;1.23;;
9968;SDS011;5025;48.890;9.278;2022-11-21T10:57:00;1.60;;;1.50;;
9968;SDS011;5025;48.890;9.278;2022-11-21T10:59:31;2.57;;;1.20;;
9968;SDS011;5025;48.890;9.278;2022-11-21T11:04:37;3.20;;;1.60;;
9968;SDS011;5025;48.890;9.278;2022-11-21T11:09:52;2.00;;;1.10;;
9968;SDS011;5025;48.890;9.278;2022-11-21T11:12:47;2.90;;;1.30;;
9968;SDS011;5025;48.890;9.278;2022-11-21T11:15:33;2.00;;;1.07;;
9968;SDS011;5025;48.890;9.278;2022-11-21T11:18:00;1.87;;;1.20;;
9968;SDS011;5025;48.890;9.278;2022-11-21T11:22:53;1.17;;;1.07;;
9968;SDS011;5025;48.890;9.278;2022-11-21T11:25:18;1.10;;;1.00;;
9968;SDS011;5025;48.890;9.278;2022-11-21T11:27:43;1.90;;;1.50;;
9968;SDS011;5025;48.890;9.278;2022-11-21T11:30:13;1.17;;;1.07;;
9968;SDS011;5025;48.890;9.278;2022-11-21T11:32:39;1.23;;;1.13;;
9968;SDS011;5025;48.890;9.278;2022-11-21T11:37:37;1.63;;;1.13;;
9968;SDS011;5025;48.890;9.278;2022-11-21T11:51:43;1.30;;;1.13;;
9968;SDS011;5025;48.890;9.278;2022-11-21T11:54:21;2.03;;;1.30;;
9968;SDS011;5025;48.890;9.278;2022-11-21T11:56:50;1.40;;;1.30;;
9968;SDS011;5025;48.890;9.278;2022-11-21T11:59:27;1.70;;;1.60;;
9968;SDS011;5025;48.890;9.278;2022-11-21T12:02:05;1.60;;;1.50;;
9968;SDS011;5025;48.890;9.278;2022-11-21T12:07:33;1.20;;;1.00;;
9968;SDS011;5025;48.890;9.278;2022-11-21T12:12:44;1.37;;;1.00;;
9968;SDS011;5025;48.890;9.278;2022-11-21T12:15:18;1.40;;;1.30;;
9968;SDS011;5025;48.890;9.278;2022-11-21T12:28:42;2.27;;;1.30;;
9968;SDS011;5025;48.890;9.278;2022-11-21T12:36:48;1.17;;;1.00;;
9968;SDS011;5025;48.890;9.278;2022-11-21T12:42:24;1.37;;;1.17;;
9968;SDS011;5025;48.890;9.278;2022-11-21T12:45:28;1.70;;;1.20;;
9968;SDS011;5025;48.890;9.278;2022-11-21T12:57:09;2.00;;;1.33;;
9968;SDS011;5025;48.890;9.278;2022-11-21T13:05:23;1.60;;;1.50;;
9968;SDS011;5025;48.890;9.278;2022-11-21T13:07:52;2.10;;;1.60;;
9968;SDS011;5025;48.890;9.278;2022-11-21T13:10:24;2.10;;;1.90;;
9968;SDS011;5025;48.890;9.278;2022-11-21T13:12:53;2.10;;;1.70;;
9968;SDS011;5025;48.890;9.278;2022-11-21T13:15:27;2.93;;;1.43;;
9968;SDS011;5025;48.890;9.278;2022-11-21T13:18:02;1.73;;;1.37;;
9968;SDS011;5025;48.890;9.278;2022-11-21T13:23:06;2.40;;;1.73;;
9968;SDS011;5025;48.890;9.278;2022-11-21T13:28:49;2.27;;;1.60;;
9968;SDS011;5025;48.890;9.278;2022-11-21T13:31:31;2.03;;;1.50;;
9968;SDS011;5025;48.890;9.278;2022-11-21T13:33:57;2.40;;;1.50;;
9968;SDS011;5025;48.890;9.278;2022-11-21T13:57:59;1.87;;;1.60;;
9968;SDS011;5025;48.890;9.278;2022-11-21T14:05:45;1.47;;;1.37;;
9968;SDS011;5025;48.890;9.278;2022-11-21T14:08:30;2.40;;;1.60;;
9968;SDS011;5025;48.890;9.278;2022-11-21T14:10:56;1.70;;;1.57;;
9968;SDS011;5025;48.890;9.278;2022-11-21T14:13:28;2.80;;;1.60;;
9968;SDS011;5025;48.890;9.278;2022-11-21T14:18:45;1.90;;;1.70;;
9968;SDS011;5025;48.890;9.278;2022-11-21T14:24:14;2.47;;;1.43;;
9968;SDS011;5025;48.890;9.278;2022-11-21T14:26:43;1.43;;;1.27;;
9968;SDS011;5025;48.890;9.278;2022-11-21T14:29:15;1.40;;;1.30;;
9968;SDS011;5025;48.890;9.278;2022-11-21T14:31:50;1.60;;;1.50;;
9968;SDS011;5025;48.890;9.278;2022-11-21T14:34:25;2.70;;;1.57;;
9968;SDS011;5025;48.890;9.278;2022-11-21T14:36:52;1.50;;;1.40;;
9968;SDS011;5025;48.890;9.278;2022-11-21T14:39:19;1.57;;;1.47;;
9968;SDS011;5025;48.890;9.278;2022-11-21T14:41:59;2.00;;;1.87;;
9968;SDS011;5025;48.890;9.278;2022-11-21T14:44:26;3.17;;;2.43;;
9968;SDS011;5025;48.890;9.278;2022-11-21T14:47:07;5.07;;;3.37;;
9968;SDS011;5025;48.890;9.278;2022-11-21T14:49:46;2.77;;;2.53;;
9968;SDS011;5025;48.890;9.278;2022-11-21T14:54:55;2.30;;;2.10;;
9968;SDS011;5025;48.890;9.278;2022-11-21T14:57:26;2.33;;;2.10;;
9968;SDS011;5025;48.890;9.278;2022-11-21T14:59:55;2.30;;;2.10;;
9968;SDS011;5025;48.890;9.278;2022-11-21T15:02:25;2.43;;;2.10;;
9968;SDS011;5025;48.890;9.278;2022-11-21T15:04:53;2.23;;;2.03;;
9968;SDS011;5025;48.890;9.278;2022-11-21T15:09:50;2.23;;;2.03;;
9968;SDS011;5025;48.890;9.278;2022-11-21T15:12:24;2.57;;;2.33;;
9968;SDS011;5025;48.890;9.278;2022-11-21T15:17:24;3.33;;;2.63;;
9968;SDS011;5025;48.890;9.278;2022-11-21T15:22:35;3.20;;;2.30;;
9968;SDS011;5025;48.890;9.278;2022-11-21T15:25:06;2.77;;;2.33;;
9968;SDS011;5025;48.890;9.278;2022-11-21T15:28:05;2.70;;;2.10;;
9968;SDS011;5025;48.890;9.278;2022-11-21T15:30:28;2.17;;;2.07;;
9968;SDS011;5025;48.890;9.278;2022-11-21T15:38:19;3.37;;;2.13;;
9968;SDS011;5025;48.890;9.278;2022-11-21T15:40:55;3.10;;;2.63;;
9968;SDS011;5025;48.890;9.278;2022-11-21T15:46:12;2.53;;;2.40;;
9968;SDS011;5025;48.890;9.278;2022-11-21T15:48:39;3.93;;;2.63;;
9968;SDS011;5025;48.890;9.278;2022-11-21T15:51:06;2.20;;;2.10;;
9968;SDS011;5025;48.890;9.278;2022-11-21T15:53:33;2.70;;;2.50;;
9968;SDS011;5025;48.890;9.278;2022-11-21T15:55:58;2.20;;;2.10;;
9968;SDS011;5025;48.890;9.278;2022-11-21T15:58:24;2.70;;;2.50;;
9968;SDS011;5025;48.890;9.278;2022-11-21T16:00:49;3.73;;;3.03;;
9968;SDS011;5025;48.890;9.278;2022-11-21T16:03:14;2.90;;;2.60;;
9968;SDS011;5025;48.890;9.278;2022-11-21T16:05:39;3.07;;;2.70;;
9968;SDS011;5025;48.890;9.278;2022-11-21T16:08:05;2.90;;;2.60;;
9968;SDS011;5025;48.890;9.278;2022-11-21T16:10:30;3.73;;;2.90;;
9968;SDS011;5025;48.890;9.278;2022-11-21T16:12:56;2.50;;;2.30;;
9968;SDS011;5025;48.890;9.278;2022-11-21T16:15:21;2.87;;;2.57;;
9968;SDS011;5025;48.890;9.278;2022-11-21T16:17:47;3.00;;;2.70;;
9968;SDS011;5025;48.890;9.278;2022-11-21T16:20:12;4.33;;;2.80;;
9968;SDS011;5025;48.890;9.278;2022-11-21T16:22:37;3.57;;;2.77;;
9968;SDS011;5025;48.890;9.278;2022-11-21T16:25:02;2.70;;;2.40;;
9968;SDS011;5025;48.890;9.278;2022-11-21T16:27:30;2.30;;;2.10;;
9968;SDS011;5025;48.890;9.278;2022-11-21T16:29:56;2.50;;;2.30;;
9968;SDS011;5025;48.890;9.278;2022-11-21T16:32:21;2.30;;;2.13;;
9968;SDS011;5025;48.890;9.278;2022-11-21T16:34:49;2.37;;;2.10;;
9968;SDS011;5025;48.890;9.278;2022-11-21T16:37:15;2.07;;;1.97;;
9968;SDS011;5025;48.890;9.278;2022-11-21T16:39:40;2.43;;;2.10;;
9968;SDS011;5025;48.890;9.278;2022-11-21T16:42:08;2.90;;;2.10;;
9968;SDS011;5025;48.890;9.278;2022-11-21T16:44:34;2.10;;;1.73;;
9968;SDS011;5025;48.890;9.278;2022-11-21T16:46:59;2.30;;;2.00;;
9968;SDS011;5025;48.890;9.278;2022-11-21T16:49:24;2.30;;;2.10;;
9968;SDS011;5025;48.890;9.278;2022-11-21T16:51:50;1.70;;;1.60;;
9968;SDS011;5025;48.890;9.278;2022-11-21T16:54:15;2.37;;;1.90;;
9968;SDS011;5025;48.890;9.278;2022-11-21T16:56:41;2.33;;;2.00;;
9968;SDS011;5025;48.890;9.278;2022-11-21T16:59:06;2.10;;;2.00;;
9968;SDS011;5025;48.890;9.278;2022-11-21T17:01:31;2.90;;;2.50;;
9968;SDS011;5025;48.890;9.278;2022-11-21T17:03:57;2.30;;;2.10;;
9968;SDS011;5025;48.890;9.278;2022-11-21T17:06:23;2.40;;;2.20;;
9968;SDS011;5025;48.890;9.278;2022-11-21T17:08:52;3.17;;;2.40;;
9968;SDS011;5025;48.890;9.278;2022-11-21T17:11:19;3.07;;;2.60;;
9968;SDS011;5025;48.890;9.278;2022-11-21T17:13:46;4.33;;;2.67;;
9968;SDS011;5025;48.890;9.278;2022-11-21T17:16:13;2.93;;;2.60;;
9968;SDS011;5025;48.890;9.278;2022-11-21T17:18:39;2.77;;;2.40;;
9968;SDS011;5025;48.890;9.278;2022-11-21T17:21:05;2.60;;;2.40;;
9968;SDS011;5025;48.890;9.278;2022-11-21T17:23:31;2.70;;;2.20;;
9968;SDS011;5025;48.890;9.278;2022-11-21T17:26:01;3.13;;;2.23;;
9968;SDS011;5025;48.890;9.278;2022-11-21T17:28:30;2.27;;;2.00;;
9968;SDS011;5025;48.890;9.278;2022-11-21T17:30:56;1.93;;;1.83;;
9968;SDS011;5025;48.890;9.278;2022-11-21T17:33:21;2.33;;;1.80;;
9968;SDS011;5025;48.890;9.278;2022-11-21T17:35:46;2.10;;;1.90;;
9968;SDS011;5025;48.890;9.278;2022-11-21T17:38:12;2.00;;;1.90;;
9968;SDS011;5025;48.890;9.278;2022-11-21T17:40:37;2.43;;;2.23;;
9968;SDS011;5025;48.890;9.278;2022-11-21T17:43:03;2.27;;;2.10;;
9968;SDS011;5025;48.890;9.278;2022-11-21T17:45:28;2.47;;;2.07;;
9968;SDS011;5025;48.890;9.278;2022-11-21T17:47:53;2.70;;;2.40;;
9968;SDS011;5025;48.890;9.278;2022-11-21T17:50:19;2.60;;;2.00;;